Time;durP1;ratioP1;P1;durP2;ratioP2;P2;SDS_P1;SDS_P2;PMS_P1;PMS_P2;Temp;Humidity;BMP_temperature;BMP_pressure;BME280_temperature;BME280_humidity;BME280_pressure;Samples;Min_cycle;Max_cycle;Signal;HPM_P1;HPM_P2
2021/10/21 00:02:12;;;;;;;9.68;2.83;;;12.80;99.90;;;;;;5117867;27;20023;-71
2021/10/21 00:04:38;;;;;;;6.53;2.80;;;12.90;99.90;;;;;;5116951;27;20050;-71
2021/10/21 00:07:03;;;;;;;10.95;2.45;;;12.80;99.90;;;;;;5134029;27;20057;-71
2021/10/21 00:09:29;;;;;;;3.35;1.95;;;12.80;99.90;;;;;;5099946;27;20477;-73
2021/10/21 00:11:54;;;;;;;11.52;2.70;;;12.80;99.90;;;;;;5133991;27;20050;-73
2021/10/21 00:14:20;;;;;;;6.65;2.13;;;12.70;99.90;;;;;;5116863;27;20019;-72
2021/10/21 00:16:46;;;;;;;9.25;2.25;;;12.80;99.90;;;;;;5099767;27;20050;-74
2021/10/21 00:19:11;;;;;;;7.38;2.50;;;12.80;99.90;;;;;;5116713;27;20160;-72
2021/10/21 00:21:37;;;;;;;12.50;2.65;;;12.90;99.90;;;;;;5116574;27;20039;-71
2021/10/21 00:24:03;;;;;;;8.38;2.58;;;12.80;99.90;;;;;;5116454;27;20055;-70
2021/10/21 00:26:28;;;;;;;6.38;2.03;;;12.80;99.90;;;;;;5133368;27;20121;-70
2021/10/21 00:28:54;;;;;;;4.30;2.10;;;13.00;99.90;;;;;;5116392;27;20118;-72
2021/10/21 00:31:19;;;;;;;2.83;0.68;;;13.00;99.90;;;;;;5134665;27;20428;-70
2021/10/21 00:33:45;;;;;;;2.72;1.38;;;12.90;99.90;;;;;;5099462;27;20077;-70
2021/10/21 00:36:11;;;;;;;2.53;0.90;;;12.80;99.90;;;;;;5115988;28;20474;-71
2021/10/21 00:38:36;;;;;;;2.60;0.82;;;12.70;99.90;;;;;;5116000;27;20024;-71
2021/10/21 00:41:03;;;;;;;3.97;1.55;;;12.50;99.90;;;;;;5133645;27;20026;-71
2021/10/21 00:43:39;;;;;;;5.65;1.10;;;12.40;99.90;;;;;;5133621;27;20043;-73
2021/10/21 00:46:10;;;;;;;5.72;1.05;;;12.30;99.90;;;;;;5116440;27;20084;-71
2021/10/21 00:48:36;;;;;;;3.95;1.00;;;12.30;99.90;;;;;;5116233;27;20023;-72
2021/10/21 00:51:06;;;;;;;6.38;1.38;;;12.10;99.90;;;;;;5116119;27;20556;-73
2021/10/21 00:53:32;;;;;;;8.73;1.20;;;12.00;99.90;;;;;;5133491;27;20023;-71
2021/10/21 00:55:58;;;;;;;5.22;1.38;;;11.90;99.90;;;;;;5133234;27;20026;-71
2021/10/21 00:58:23;;;;;;;5.47;1.27;;;11.80;99.90;;;;;;5133324;27;20023;-71
2021/10/21 01:00:49;;;;;;;2.38;1.10;;;11.80;99.90;;;;;;5133250;27;20031;-70
2021/10/21 01:03:15;;;;;;;2.97;0.63;;;11.90;99.90;;;;;;5133174;27;20472;-70
2021/10/21 01:05:41;;;;;;;4.25;1.30;;;12.00;99.90;;;;;;5134359;27;20061;-69
2021/10/21 01:08:06;;;;;;;6.65;0.80;;;12.00;99.90;;;;;;5116112;27;20067;-70
2021/10/21 01:10:32;;;;;;;5.22;0.80;;;12.10;99.90;;;;;;5133015;27;20437;-70
2021/10/21 01:12:57;;;;;;;7.10;1.48;;;12.10;99.90;;;;;;5132980;27;20023;-71
2021/10/21 01:15:28;;;;;;;4.88;1.33;;;12.20;99.90;;;;;;5098772;27;20168;-70
2021/10/21 01:17:55;;;;;;;7.43;1.50;;;12.20;99.90;;;;;;5116318;28;20027;-75
2021/10/21 01:20:21;;;;;;;9.85;1.85;;;12.30;99.90;;;;;;5115812;28;20019;-73
2021/10/21 01:22:47;;;;;;;11.93;2.30;;;12.30;99.90;;;;;;5132865;27;20027;-72
2021/10/21 01:25:15;;;;;;;13.80;2.35;;;12.20;99.90;;;;;;5115827;28;20034;-76
2021/10/21 01:27:44;;;;;;;14.65;2.40;;;12.30;99.90;;;;;;5116376;28;20047;-76
2021/10/21 01:30:25;;;;;;;16.50;1.60;;;12.30;99.90;;;;;;5116149;28;20072;-77
2021/10/21 01:32:52;;;;;;;10.80;1.90;;;12.30;99.90;;;;;;5116045;28;20426;-77
2021/10/21 01:35:18;;;;;;;9.32;2.22;;;12.20;99.90;;;;;;5115951;28;20012;-78
2021/10/21 01:37:46;;;;;;;9.75;1.92;;;12.20;99.90;;;;;;5115984;28;20027;-77
2021/10/21 01:40:14;;;;;;;6.57;1.08;;;12.20;99.90;;;;;;5115952;28;20019;-75
2021/10/21 01:42:43;;;;;;;6.90;1.63;;;12.20;99.90;;;;;;5099120;28;20024;-75
2021/10/21 01:45:19;;;;;;;4.28;0.55;;;12.10;99.90;;;;;;5116550;28;20023;-73
2021/10/21 01:47:46;;;;;;;5.65;1.15;;;12.00;99.90;;;;;;5132957;27;20111;-73
2021/10/21 01:50:11;;;;;;;4.13;1.50;;;12.00;99.90;;;;;;5119594;27;20071;-74
2021/10/21 01:52:37;;;;;;;3.40;1.15;;;11.80;99.90;;;;;;5102721;27;20031;-73
2021/10/21 01:55:04;;;;;;;5.88;1.05;;;11.90;99.90;;;;;;5119762;27;20027;-71
2021/10/21 01:57:30;;;;;;;4.78;0.88;;;11.80;99.90;;;;;;5136871;27;20027;-73
2021/10/21 01:59:55;;;;;;;2.83;0.93;;;11.80;99.90;;;;;;5102733;27;20477;-72
2021/10/21 02:02:21;;;;;;;9.85;1.27;;;11.70;99.90;;;;;;5119498;27;20023;-75
2021/10/21 02:04:46;;;;;;;9.73;1.20;;;11.70;99.90;;;;;;5102524;27;20038;-75
2021/10/21 02:07:12;;;;;;;10.23;1.65;;;11.70;99.90;;;;;;5119199;27;20023;-74
2021/10/21 02:09:38;;;;;;;11.38;2.13;;;11.60;99.90;;;;;;5102299;27;20114;-74
2021/10/21 02:12:03;;;;;;;18.02;2.83;;;11.60;99.90;;;;;;5119314;27;20035;-74
2021/10/21 02:14:29;;;;;;;16.80;2.30;;;11.60;99.90;;;;;;5136440;27;20378;-75
2021/10/21 02:16:54;;;;;;;12.18;1.45;;;11.50;99.90;;;;;;5137688;27;20110;-74
2021/10/21 02:19:20;;;;;;;8.43;1.35;;;11.50;99.90;;;;;;5136366;27;20028;-75
2021/10/21 02:21:46;;;;;;;10.68;1.67;;;11.40;99.90;;;;;;5103167;27;20035;-75
2021/10/21 02:24:11;;;;;;;14.48;1.90;;;11.40;99.90;;;;;;5107642;27;20019;-74
2021/10/21 02:26:37;;;;;;;9.98;2.70;;;11.30;99.90;;;;;;5107792;27;20555;-75
2021/10/21 02:29:03;;;;;;;6.05;1.25;;;11.30;99.90;;;;;;5143799;27;20026;-76
2021/10/21 02:31:28;;;;;;;9.80;1.98;;;11.20;99.90;;;;;;5139667;27;20035;-74
2021/10/21 02:33:54;;;;;;;14.50;1.73;;;11.20;99.90;;;;;;5137068;27;20019;-72
2021/10/21 02:36:19;;;;;;;9.82;2.17;;;11.10;99.90;;;;;;5136518;27;20393;-74
2021/10/21 02:38:45;;;;;;;7.95;1.60;;;11.10;99.90;;;;;;5119252;27;20118;-73
2021/10/21 02:41:11;;;;;;;5.25;1.70;;;11.10;99.90;;;;;;5102306;27;20037;-70
2021/10/21 02:43:37;;;;;;;10.00;1.27;;;11.10;99.90;;;;;;5119177;27;20084;-71
2021/10/21 02:46:03;;;;;;;4.18;1.05;;;11.10;99.90;;;;;;5103062;27;20047;-71
2021/10/21 02:48:29;;;;;;;8.00;1.63;;;11.10;99.90;;;;;;5102239;27;20039;-70
2021/10/21 02:50:55;;;;;;;7.30;1.30;;;11.10;99.90;;;;;;5136107;27;20505;-70
2021/10/21 02:53:20;;;;;;;10.23;1.35;;;11.10;99.90;;;;;;5118556;27;20367;-71
2021/10/21 02:55:46;;;;;;;5.13;1.23;;;11.10;99.90;;;;;;5118493;27;20027;-71
2021/10/21 02:58:12;;;;;;;6.15;1.10;;;11.10;99.90;;;;;;5136488;27;20031;-71
2021/10/21 03:00:39;;;;;;;5.50;0.90;;;11.10;99.90;;;;;;5134290;27;20019;-69
2021/10/21 03:03:05;;;;;;;7.20;1.27;;;11.10;99.90;;;;;;5101369;27;20032;-70
2021/10/21 03:05:30;;;;;;;8.55;1.23;;;11.10;99.90;;;;;;5135420;27;20030;-70
2021/10/21 03:07:56;;;;;;;5.57;0.80;;;11.10;99.90;;;;;;5118271;27;20030;-70
2021/10/21 03:10:21;;;;;;;5.25;1.02;;;11.20;99.90;;;;;;5135215;27;20409;-70
2021/10/21 03:12:47;;;;;;;8.02;1.90;;;11.10;99.90;;;;;;5136789;27;20083;-73
2021/10/21 03:15:13;;;;;;;5.80;0.93;;;11.10;99.90;;;;;;5118253;27;20146;-75
2021/10/21 03:17:42;;;;;;;6.88;1.25;;;11.10;99.90;;;;;;5118114;27;20500;-75
2021/10/21 03:20:16;;;;;;;6.15;1.52;;;11.10;99.90;;;;;;5101870;27;20023;-75
2021/10/21 03:22:42;;;;;;;4.88;0.80;;;11.20;99.90;;;;;;5135013;27;20499;-75
2021/10/21 03:25:09;;;;;;;4.55;1.20;;;11.10;99.90;;;;;;5101145;27;20110;-75
2021/10/21 03:27:35;;;;;;;3.70;1.50;;;11.10;99.90;;;;;;5134964;27;20070;-76
2021/10/21 03:30:03;;;;;;;2.63;1.13;;;11.10;99.90;;;;;;5117852;27;20072;-73
2021/10/21 03:32:31;;;;;;;4.05;1.13;;;11.10;99.90;;;;;;5117884;27;20033;-76
2021/10/21 03:34:57;;;;;;;4.80;1.13;;;11.10;99.90;;;;;;5118293;27;20031;-75
2021/10/21 03:37:22;;;;;;;6.32;1.58;;;11.20;99.90;;;;;;5117488;27;20530;-75
2021/10/21 03:39:51;;;;;;;3.10;1.02;;;11.20;99.90;;;;;;5117670;27;20023;-76
2021/10/21 03:42:18;;;;;;;4.88;0.80;;;11.20;99.90;;;;;;5135970;27;20031;-70
2021/10/21 03:44:43;;;;;;;4.22;1.20;;;11.20;99.90;;;;;;5134631;27;20011;-73
2021/10/21 03:47:09;;;;;;;3.88;1.33;;;11.20;99.90;;;;;;5134546;27;20385;-71
2021/10/21 03:49:36;;;;;;;6.22;1.00;;;11.30;99.90;;;;;;5135740;27;20026;-72
2021/10/21 03:52:02;;;;;;;7.43;1.58;;;11.30;99.90;;;;;;5134418;27;20073;-72
2021/10/21 03:54:28;;;;;;;8.32;0.90;;;11.30;99.90;;;;;;5135531;27;20034;-70
2021/10/21 03:56:53;;;;;;;4.55;0.90;;;11.20;99.90;;;;;;5135577;27;20023;-71
2021/10/21 03:59:19;;;;;;;4.10;1.10;;;11.10;99.90;;;;;;5134424;27;20030;-70
2021/10/21 04:01:45;;;;;;;4.40;0.98;;;11.30;99.90;;;;;;5134213;27;20501;-71
2021/10/21 04:04:10;;;;;;;3.92;0.88;;;11.20;99.90;;;;;;5135447;27;20031;-69
2021/10/21 04:06:36;;;;;;;2.38;1.13;;;11.20;99.90;;;;;;5135294;27;20054;-69
2021/10/21 04:09:02;;;;;;;3.40;1.35;;;11.20;99.90;;;;;;5134422;27;20378;-70
2021/10/21 04:11:27;;;;;;;5.50;1.15;;;11.30;99.90;;;;;;5134154;27;20034;-73
2021/10/21 04:13:53;;;;;;;1.85;0.70;;;11.00;99.90;;;;;;5135717;27;20027;-71
2021/10/21 04:16:19;;;;;;;7.07;1.33;;;10.90;99.90;;;;;;5134457;27;20409;-72
2021/10/21 04:18:44;;;;;;;4.03;1.20;;;10.80;99.90;;;;;;5133983;27;20055;-72
2021/10/21 04:21:12;;;;;;;3.72;0.90;;;10.60;99.90;;;;;;5133741;27;20042;-72
2021/10/21 04:23:37;;;;;;;1.90;0.80;;;10.60;99.90;;;;;;5133825;27;20112;-74
2021/10/21 04:26:03;;;;;;;7.28;2.30;;;10.60;99.90;;;;;;5116616;27;20071;-73
2021/10/21 04:28:29;;;;;;;4.15;0.75;;;10.50;99.90;;;;;;5116317;27;20047;-73
2021/10/21 04:30:54;;;;;;;5.65;1.17;;;10.50;99.90;;;;;;5116549;27;20077;-73
2021/10/21 04:33:20;;;;;;;4.90;0.60;;;10.40;99.90;;;;;;5133672;27;20033;-74
2021/10/21 04:35:45;;;;;;;7.97;2.15;;;10.30;99.90;;;;;;5133517;27;20160;-73
2021/10/21 04:38:11;;;;;;;3.72;0.70;;;10.30;99.90;;;;;;5116391;27;20019;-72
2021/10/21 04:40:36;;;;;;;9.38;1.38;;;10.30;99.90;;;;;;5133778;27;20825;-74
2021/10/21 04:43:02;;;;;;;5.68;1.27;;;10.30;99.90;;;;;;5116355;27;20023;-74
2021/10/21 04:45:28;;;;;;;9.60;0.93;;;10.30;99.90;;;;;;5116272;27;20025;-74
2021/10/21 04:47:56;;;;;;;9.63;1.25;;;10.30;99.90;;;;;;5134938;27;20118;-73
2021/10/21 04:50:24;;;;;;;15.63;1.65;;;10.30;99.90;;;;;;5133588;27;20038;-74
2021/10/21 04:52:52;;;;;;;8.20;2.20;;;10.20;99.90;;;;;;5134783;27;20030;-75
2021/10/21 04:55:19;;;;;;;11.60;1.88;;;10.20;99.90;;;;;;5116748;27;20489;-76
2021/10/21 04:57:45;;;;;;;11.90;1.83;;;10.20;99.90;;;;;;5133242;27;20051;-74
2021/10/21 05:00:11;;;;;;;13.25;1.95;;;10.20;99.90;;;;;;5116002;28;20027;-72
2021/10/21 05:02:37;;;;;;;16.33;2.13;;;10.20;99.90;;;;;;5133232;27;20051;-72
2021/10/21 05:05:03;;;;;;;8.82;2.35;;;10.20;99.90;;;;;;5133280;27;20417;-74
2021/10/21 05:07:28;;;;;;;12.98;2.40;;;10.20;99.90;;;;;;5115867;27;20023;-74
2021/10/21 05:09:54;;;;;;;10.30;1.77;;;10.20;99.90;;;;;;5115958;27;20071;-74
2021/10/21 05:12:20;;;;;;;15.25;1.75;;;10.20;99.90;;;;;;5132974;27;20038;-73
2021/10/21 05:14:45;;;;;;;5.05;1.20;;;10.20;99.90;;;;;;5133328;27;20062;-72
2021/10/21 05:17:11;;;;;;;7.25;1.38;;;10.00;99.90;;;;;;5116176;27;20015;-74
2021/10/21 05:19:36;;;;;;;3.75;1.00;;;10.10;99.90;;;;;;5115886;27;20031;-71
2021/10/21 05:22:02;;;;;;;7.20;1.15;;;9.90;99.90;;;;;;5133052;27;20031;-74
2021/10/21 05:24:28;;;;;;;6.80;1.45;;;9.90;99.90;;;;;;5098398;28;20028;-76
2021/10/21 05:26:54;;;;;;;14.25;1.30;;;9.90;99.90;;;;;;5098690;28;20055;-74
2021/10/21 05:29:20;;;;;;;13.77;1.30;;;10.00;99.90;;;;;;5099282;28;20031;-75
2021/10/21 05:31:46;;;;;;;9.90;1.50;;;10.00;99.90;;;;;;5098976;28;20053;-74
2021/10/21 05:34:13;;;;;;;6.72;2.33;;;10.00;99.90;;;;;;5115794;28;20011;-75
2021/10/21 05:36:38;;;;;;;11.88;1.35;;;10.40;99.90;;;;;;5115853;28;20037;-74
2021/10/21 05:39:04;;;;;;;11.10;1.65;;;11.50;99.90;;;;;;5115710;28;20023;-75
2021/10/21 05:41:30;;;;;;;6.65;1.08;;;10.10;99.90;;;;;;5134399;27;20054;-74
2021/10/21 05:43:55;;;;;;;16.42;1.75;;;10.20;99.90;;;;;;5134398;27;20031;-73
2021/10/21 05:46:22;;;;;;;10.38;1.70;;;10.30;99.90;;;;;;5133211;28;20031;-73
2021/10/21 05:48:47;;;;;;;10.65;2.63;;;10.30;99.90;;;;;;5132927;28;20030;-73
2021/10/21 05:51:13;;;;;;;10.55;1.40;;;10.50;99.90;;;;;;5098631;28;20039;-73
2021/10/21 05:53:39;;;;;;;13.07;2.33;;;10.50;99.90;;;;;;5132655;27;20015;-74
2021/10/21 05:56:05;;;;;;;10.05;2.58;;;10.60;99.90;;;;;;5115999;28;20042;-75
2021/10/21 05:58:30;;;;;;;11.07;2.75;;;10.60;99.90;;;;;;5132698;28;20419;-73
2021/10/21 06:00:56;;;;;;;5.07;1.27;;;10.60;99.90;;;;;;5132896;28;20071;-72
2021/10/21 06:03:21;;;;;;;17.85;2.60;;;10.70;99.90;;;;;;5135662;28;20047;-74
2021/10/21 06:05:47;;;;;;;7.70;1.60;;;10.70;99.90;;;;;;5105448;28;20025;-75
2021/10/21 06:08:13;;;;;;;9.85;2.00;;;10.70;99.90;;;;;;5122189;28;20019;-73
2021/10/21 06:10:38;;;;;;;9.20;1.88;;;10.70;99.90;;;;;;5120545;28;20042;-73
2021/10/21 06:13:05;;;;;;;8.85;1.67;;;10.70;99.90;;;;;;5124567;28;20035;-74
2021/10/21 06:15:31;;;;;;;10.45;1.70;;;10.90;99.90;;;;;;5110357;28;20030;-73
2021/10/21 06:17:57;;;;;;;9.82;1.98;;;11.00;99.90;;;;;;5122989;28;20114;-76
2021/10/21 06:20:23;;;;;;;12.07;2.03;;;11.00;99.90;;;;;;5122730;28;20016;-73
2021/10/21 06:22:49;;;;;;;8.20;2.58;;;11.00;99.90;;;;;;5142204;27;20031;-74
2021/10/21 06:25:15;;;;;;;12.80;1.42;;;11.10;99.90;;;;;;5139776;28;20109;-75
2021/10/21 06:27:40;;;;;;;18.52;4.05;;;11.10;99.90;;;;;;5140685;27;20078;-75
2021/10/21 06:30:07;;;;;;;12.65;2.30;;;11.10;99.90;;;;;;5134181;27;20397;-75
2021/10/21 06:32:33;;;;;;;12.68;2.28;;;11.10;99.90;;;;;;5134072;28;20079;-70
2021/10/21 06:34:58;;;;;;;9.82;1.38;;;11.10;99.90;;;;;;5116588;27;20473;-71
2021/10/21 06:37:24;;;;;;;3.72;1.50;;;11.10;99.90;;;;;;5119500;27;20122;-70
2021/10/21 06:39:55;;;;;;;8.63;2.25;;;11.10;99.90;;;;;;5136258;27;20098;-70
2021/10/21 06:42:22;;;;;;;9.93;1.55;;;11.10;99.90;;;;;;5119842;27;20072;-69
2021/10/21 06:44:48;;;;;;;14.48;2.00;;;11.10;99.90;;;;;;5119104;27;20019;-69
2021/10/21 06:47:13;;;;;;;7.10;1.25;;;11.10;99.90;;;;;;5119022;27;20123;-70
2021/10/21 06:49:39;;;;;;;10.25;1.88;;;11.10;99.90;;;;;;5136042;27;20023;-69
2021/10/21 06:52:05;;;;;;;8.75;2.03;;;11.20;99.90;;;;;;5136925;27;20039;-70
2021/10/21 06:54:30;;;;;;;8.80;1.65;;;11.20;99.90;;;;;;5118711;27;20051;-69
2021/10/21 06:56:57;;;;;;;15.32;2.50;;;11.30;99.90;;;;;;5118848;27;20035;-69
2021/10/21 06:59:23;;;;;;;12.50;2.42;;;11.40;99.90;;;;;;5118503;27;20024;-70
2021/10/21 07:01:48;;;;;;;11.25;3.40;;;11.40;99.90;;;;;;5118452;27;20060;-68
2021/10/21 07:04:14;;;;;;;9.85;1.30;;;11.50;99.90;;;;;;5135558;27;20023;-69
2021/10/21 07:06:39;;;;;;;7.65;1.70;;;11.50;99.90;;;;;;5118381;27;20393;-74
2021/10/21 07:09:05;;;;;;;11.23;2.30;;;11.50;99.90;;;;;;5135853;27;20034;-72
2021/10/21 07:11:31;;;;;;;8.40;3.17;;;11.60;99.90;;;;;;5118454;27;20053;-71
2021/10/21 07:13:57;;;;;;;7.07;1.83;;;11.50;99.90;;;;;;5118268;27;20031;-69
2021/10/21 07:16:23;;;;;;;10.30;2.55;;;11.40;99.90;;;;;;5137257;27;20031;-69
2021/10/21 07:18:49;;;;;;;5.60;1.70;;;11.30;99.90;;;;;;5118270;27;20027;-73
2021/10/21 07:21:17;;;;;;;12.38;2.45;;;11.20;99.90;;;;;;5136547;27;20481;-72
2021/10/21 07:23:44;;;;;;;10.05;2.63;;;11.00;99.90;;;;;;5118464;27;20035;-73
2021/10/21 07:26:10;;;;;;;8.18;1.92;;;11.00;99.90;;;;;;5135188;27;20418;-71
2021/10/21 07:28:36;;;;;;;10.65;2.63;;;10.80;99.90;;;;;;5118055;27;20035;-72
2021/10/21 07:31:01;;;;;;;10.88;2.40;;;10.80;99.90;;;;;;5135166;27;20366;-70
2021/10/21 07:33:27;;;;;;;14.35;1.95;;;10.70;99.90;;;;;;5135565;27;20102;-73
2021/10/21 07:35:54;;;;;;;12.77;2.95;;;10.70;99.90;;;;;;5134700;27;20106;-74
2021/10/21 07:38:20;;;;;;;8.60;2.05;;;10.60;99.90;;;;;;5117978;27;20028;-73
2021/10/21 07:40:45;;;;;;;18.08;2.55;;;10.60;99.90;;;;;;5135021;27;20034;-74
2021/10/21 07:43:12;;;;;;;16.00;2.10;;;10.70;99.90;;;;;;5134846;27;20023;-72
2021/10/21 07:45:38;;;;;;;12.65;2.25;;;10.80;99.90;;;;;;5100379;27;20023;-74
2021/10/21 07:48:04;;;;;;;11.52;2.13;;;10.90;99.90;;;;;;5117604;27;20499;-70
2021/10/21 07:50:30;;;;;;;11.02;2.17;;;11.10;99.90;;;;;;5134725;27;20042;-70
2021/10/21 07:52:55;;;;;;;11.48;2.33;;;11.40;99.90;;;;;;5100291;27;20023;-69
2021/10/21 07:55:21;;;;;;;10.80;2.05;;;12.00;99.90;;;;;;5134428;27;20461;-69
2021/10/21 07:57:47;;;;;;;8.57;1.70;;;12.80;99.90;;;;;;5117831;27;20103;-70
2021/10/21 08:00:13;;;;;;;8.93;2.40;;;13.70;99.90;;;;;;5134827;27;20464;-72
2021/10/21 08:02:42;;;;;;;10.80;1.58;;;14.60;99.90;;;;;;5117418;27;20100;-71
2021/10/21 08:05:09;;;;;;;12.98;1.50;;;15.30;99.90;;;;;;5134696;27;20027;-70
2021/10/21 08:07:42;;;;;;;7.72;1.33;;;15.90;99.90;;;;;;5117005;27;20084;-71
2021/10/21 08:10:09;;;;;;;6.72;1.30;;;16.10;99.90;;;;;;5134226;27;20099;-70
2021/10/21 08:12:35;;;;;;;6.57;1.40;;;15.80;99.90;;;;;;5133968;27;20030;-71
2021/10/21 08:15:02;;;;;;;6.20;2.15;;;15.70;99.90;;;;;;5117023;27;20023;-70
2021/10/21 08:17:29;;;;;;;5.03;1.35;;;15.90;99.90;;;;;;5135372;27;20504;-71
2021/10/21 08:19:55;;;;;;;8.73;1.90;;;16.10;99.90;;;;;;5134250;27;20019;-70
2021/10/21 08:22:21;;;;;;;6.20;1.30;;;16.10;99.90;;;;;;5116771;27;20389;-71
2021/10/21 08:24:47;;;;;;;4.78;1.67;;;16.30;99.90;;;;;;5116799;27;20030;-72
2021/10/21 08:27:13;;;;;;;7.80;2.25;;;16.50;99.90;;;;;;5133561;27;20584;-71
2021/10/21 08:29:38;;;;;;;10.18;1.48;;;17.20;99.90;;;;;;5133723;27;20054;-70
2021/10/21 08:32:07;;;;;;;4.45;1.42;;;17.70;99.90;;;;;;5116711;27;20430;-70
2021/10/21 08:34:33;;;;;;;6.15;1.08;;;18.00;99.90;;;;;;5133665;27;20023;-70
2021/10/21 08:36:59;;;;;;;3.30;0.93;;;18.10;99.90;;;;;;5133932;27;20420;-72
2021/10/21 08:39:25;;;;;;;3.70;1.20;;;18.20;99.70;;;;;;5134929;27;20048;-72
2021/10/21 08:41:51;;;;;;;8.63;1.27;;;18.40;99.80;;;;;;5135224;27;20512;-71
2021/10/21 08:44:17;;;;;;;6.55;1.38;;;18.80;99.90;;;;;;5099533;27;20023;-70
2021/10/21 08:46:44;;;;;;;12.57;2.40;;;18.70;99.10;;;;;;5116546;27;20037;-70
2021/10/21 08:49:10;;;;;;;3.38;0.90;;;18.10;99.20;;;;;;5134575;27;20103;-70
2021/10/21 08:51:36;;;;;;;6.18;1.73;;;17.40;99.90;;;;;;5116188;27;20042;-69
2021/10/21 08:54:03;;;;;;;10.18;1.25;;;16.80;99.90;;;;;;5133624;27;20023;-69
2021/10/21 08:56:29;;;;;;;6.30;1.50;;;16.30;99.90;;;;;;5133525;27;20034;-70
2021/10/21 08:58:56;;;;;;;8.18;1.27;;;15.90;99.90;;;;;;5132537;27;20011;-69
2021/10/21 09:01:33;;;;;;;1.75;0.70;;;15.70;99.90;;;;;;5133451;27;20027;-70
2021/10/21 09:09:20;;;;;;;14.55;1.40;;;15.00;99.90;;;;;;5133478;27;20042;-69
2021/10/21 09:11:48;;;;;;;7.22;1.50;;;14.70;99.90;;;;;;5134359;27;20035;-71
2021/10/21 09:14:14;;;;;;;4.80;1.30;;;14.60;99.90;;;;;;5115953;27;20027;-68
2021/10/21 09:16:41;;;;;;;8.57;1.67;;;14.60;99.90;;;;;;5133116;27;20023;-70
2021/10/21 09:19:11;;;;;;;5.30;1.10;;;14.60;99.90;;;;;;5133162;27;20068;-68
2021/10/21 09:21:42;;;;;;;3.90;1.30;;;14.60;99.90;;;;;;5115465;28;20114;-68
2021/10/21 09:24:32;;;;;;;4.40;1.45;;;14.70;99.90;;;;;;5134028;27;20111;-68
2021/10/21 09:27:01;;;;;;;9.57;1.42;;;15.00;99.90;;;;;;5133081;27;20474;-69
2021/10/21 09:29:26;;;;;;;6.22;1.30;;;15.10;99.90;;;;;;5133181;27;20026;-71
2021/10/21 09:32:13;;;;;;;8.93;1.00;;;15.00;99.90;;;;;;5134082;27;20043;-69
2021/10/21 09:35:04;;;;;;;7.97;1.23;;;14.80;99.90;;;;;;5115705;28;20034;-69
2021/10/21 09:37:30;;;;;;;8.52;1.45;;;14.60;99.90;;;;;;5116591;28;20080;-69
2021/10/21 09:40:08;;;;;;;7.38;1.00;;;14.40;99.90;;;;;;5134171;27;20102;-69
2021/10/21 09:42:36;;;;;;;6.35;2.17;;;14.40;99.90;;;;;;5115719;28;20146;-69
2021/10/21 09:45:23;;;;;;;7.88;2.20;;;14.40;99.90;;;;;;5133103;28;20427;-68
2021/10/21 09:47:54;;;;;;;3.92;1.38;;;14.30;99.90;;;;;;5132715;28;20110;-70
2021/10/21 09:50:27;;;;;;;6.18;1.00;;;14.20;99.90;;;;;;5132910;28;20027;-70
2021/10/21 09:53:23;;;;;;;7.45;0.82;;;14.00;99.90;;;;;;5132499;27;20062;-69
2021/10/21 09:56:04;;;;;;;6.75;1.13;;;13.80;99.90;;;;;;5110170;28;20122;-69
2021/10/21 09:58:31;;;;;;;6.03;0.95;;;13.70;99.90;;;;;;5132648;28;20030;-70
2021/10/21 10:01:11;;;;;;;5.95;0.80;;;13.70;99.90;;;;;;5115747;28;20034;-69
2021/10/21 10:03:42;;;;;;;5.32;1.10;;;13.90;99.90;;;;;;5099223;28;20027;-70
2021/10/21 10:06:09;;;;;;;10.73;1.10;;;13.90;99.90;;;;;;5115858;28;20015;-70
2021/10/21 10:08:35;;;;;;;3.80;1.27;;;13.80;99.90;;;;;;5133197;27;20031;-70
2021/10/21 10:11:12;;;;;;;8.80;2.25;;;13.80;99.90;;;;;;5138450;27;20508;-72
2021/10/21 10:13:46;;;;;;;4.80;0.85;;;13.40;99.90;;;;;;5137806;27;20054;-73
2021/10/21 10:16:12;;;;;;;8.70;1.20;;;12.70;99.90;;;;;;5139765;27;20034;-71
2021/10/21 10:18:46;;;;;;;9.63;1.33;;;12.10;99.90;;;;;;5141633;27;20020;-76
2021/10/21 10:21:13;;;;;;;9.93;1.23;;;11.60;99.90;;;;;;5138678;27;20076;-70
2021/10/21 10:23:52;;;;;;;4.25;0.75;;;11.30;99.90;;;;;;5139712;27;20023;-71
2021/10/21 10:26:56;;;;;;;7.85;1.13;;;11.10;99.90;;;;;;5138707;27;20019;-70
2021/10/21 10:29:30;;;;;;;10.48;1.80;;;10.80;99.90;;;;;;5061422;28;20148;-73
2021/10/21 10:31:58;;;;;;;13.10;2.53;;;10.70;99.90;;;;;;5132700;27;20067;-73
2021/10/21 10:34:33;;;;;;;7.25;1.10;;;10.60;99.90;;;;;;5120934;27;20462;-73
2021/10/21 10:37:15;;;;;;;7.88;2.08;;;10.50;99.90;;;;;;5136694;27;20026;-71
2021/10/21 10:39:45;;;;;;;6.32;1.40;;;10.40;99.90;;;;;;5137672;27;20023;-71
2021/10/21 10:42:15;;;;;;;9.35;1.45;;;10.50;99.90;;;;;;5119196;27;20011;-71
2021/10/21 10:44:40;;;;;;;7.70;1.42;;;10.60;99.90;;;;;;5119000;27;20026;-70
2021/10/21 10:47:07;;;;;;;3.83;1.25;;;10.80;99.90;;;;;;5137600;27;20094;-72
2021/10/21 10:49:41;;;;;;;6.85;0.80;;;11.10;99.90;;;;;;5118955;27;20381;-72
2021/10/21 10:52:14;;;;;;;;;;;11.10;99.90;;;;;;5136716;27;20031;-71
2021/10/21 10:54:39;;;;;;;3.17;0.85;;;11.30;99.90;;;;;;5118813;27;19903;-71
2021/10/21 10:57:10;;;;;;;2.85;1.05;;;11.50;99.90;;;;;;5137379;27;20088;-70
2021/10/21 10:59:35;;;;;;;4.88;1.80;;;11.70;99.90;;;;;;5136066;27;20027;-70
2021/10/21 11:02:29;;;;;;;8.32;2.30;;;11.80;99.90;;;;;;5118645;27;20046;-70
2021/10/21 11:04:56;;;;;;;8.32;1.35;;;11.90;99.90;;;;;;5136906;27;20465;-70
2021/10/21 11:07:41;;;;;;;2.38;1.48;;;12.00;99.90;;;;;;5137127;27;20034;-69
2021/10/21 11:10:16;;;;;;;2.42;0.75;;;11.80;99.90;;;;;;5137000;27;20050;-70
2021/10/21 11:12:42;;;;;;;7.70;0.77;;;11.70;99.90;;;;;;5137200;27;20066;-70
2021/10/21 11:15:31;;;;;;;4.00;1.52;;;11.60;99.90;;;;;;5137131;27;20469;-71
2021/10/21 11:17:58;;;;;;;9.85;2.00;;;11.70;99.90;;;;;;5130873;27;20035;-72
2021/10/21 11:20:29;;;;;;;8.73;1.23;;;11.80;99.90;;;;;;5134967;27;20026;-71
2021/10/21 11:22:56;;;;;;;5.45;0.98;;;12.00;99.90;;;;;;5136674;27;20024;-70
2021/10/21 11:25:26;;;;;;;10.82;2.40;;;12.20;99.90;;;;;;5135165;27;20818;-70
2021/10/21 11:27:55;;;;;;;2.53;1.17;;;12.40;99.90;;;;;;5101103;27;20050;-71
2021/10/21 11:30:25;;;;;;;8.02;1.63;;;12.50;99.90;;;;;;5118516;27;20047;-71
2021/10/21 11:32:52;;;;;;;4.88;1.00;;;12.60;99.90;;;;;;5135254;27;20015;-70
2021/10/21 11:35:30;;;;;;;9.60;2.00;;;12.70;99.90;;;;;;5118031;27;20027;-69
2021/10/21 11:37:58;;;;;;;7.90;1.17;;;12.80;99.90;;;;;;5117927;27;20126;-72
2021/10/21 11:40:42;;;;;;;4.50;1.67;;;13.10;99.90;;;;;;5135712;27;20015;-75
2021/10/21 11:43:22;;;;;;;11.73;1.73;;;13.20;99.90;;;;;;5135265;27;20478;-69
2021/10/21 11:45:52;;;;;;;6.30;0.88;;;12.70;99.90;;;;;;5118383;27;20381;-71
2021/10/21 11:48:18;;;;;;;8.25;1.23;;;12.30;99.90;;;;;;5118019;27;20047;-72
2021/10/21 11:50:48;;;;;;;7.25;1.08;;;12.10;99.90;;;;;;5101701;27;20074;-73
2021/10/21 11:53:15;;;;;;;4.18;0.80;;;11.80;99.90;;;;;;5135438;27;20079;-72
2021/10/21 11:55:43;;;;;;;5.97;0.60;;;11.70;99.90;;;;;;5118377;27;20064;-74
2021/10/21 11:58:25;;;;;;;8.13;1.80;;;11.80;99.90;;;;;;5118645;27;20019;-73
2021/10/21 12:00:54;;;;;;;7.97;0.98;;;11.70;99.90;;;;;;5118698;27;20453;-73
2021/10/21 12:03:43;;;;;;;4.82;2.08;;;11.70;99.90;;;;;;5135899;27;20536;-71
2021/10/21 12:06:14;;;;;;;7.13;1.35;;;11.80;99.90;;;;;;5117777;27;20020;-73
2021/10/21 12:08:53;;;;;;;11.40;1.38;;;12.00;99.90;;;;;;5134617;27;20080;-73
2021/10/21 12:11:20;;;;;;;6.13;0.65;;;11.80;99.90;;;;;;5136813;27;20397;-78
2021/10/21 12:13:46;;;;;;;6.95;1.35;;;11.80;99.90;;;;;;5101216;27;20022;-72
2021/10/21 12:16:17;;;;;;;11.63;2.85;;;12.00;99.90;;;;;;5117619;27;20027;-74
2021/10/21 12:18:43;;;;;;;4.80;1.75;;;12.10;99.90;;;;;;5134921;27;20016;-71
2021/10/21 12:21:09;;;;;;;5.40;1.63;;;12.10;99.90;;;;;;5117174;27;20035;-74
2021/10/21 12:23:49;;;;;;;6.38;1.63;;;11.80;99.90;;;;;;5116975;27;20019;-68
2021/10/21 12:26:28;;;;;;;5.25;1.30;;;11.50;99.90;;;;;;5134012;27;20020;-71
2021/10/21 12:28:53;;;;;;;3.28;1.10;;;11.20;99.90;;;;;;5117095;27;20058;-72
2021/10/21 12:31:32;;;;;;;7.72;1.50;;;11.10;99.90;;;;;;5116823;27;20485;-70
2021/10/21 12:33:59;;;;;;;7.32;1.50;;;11.10;99.90;;;;;;5134362;27;20016;-69
2021/10/21 12:36:29;;;;;;;7.40;1.75;;;11.20;99.90;;;;;;5133847;27;20114;-72
2021/10/21 12:39:10;;;;;;;11.70;1.92;;;11.20;99.90;;;;;;5134889;27;20061;-72
2021/10/21 12:41:58;;;;;;;10.15;1.67;;;11.20;99.90;;;;;;5134970;27;20027;-73
2021/10/21 12:44:45;;;;;;;13.40;2.97;;;11.20;99.90;;;;;;5116463;27;20094;-72
2021/10/21 12:47:25;;;;;;;9.55;1.90;;;11.30;99.90;;;;;;5134586;27;20463;-70
2021/10/21 12:49:56;;;;;;;12.10;2.95;;;11.30;99.90;;;;;;5134810;27;20027;-70
2021/10/21 12:52:26;;;;;;;21.95;3.55;;;11.40;99.90;;;;;;5134799;27;20043;-73
2021/10/21 12:55:11;;;;;;;26.05;3.42;;;11.50;99.90;;;;;;5116402;27;20030;-74
2021/10/21 12:57:59;;;;;;;13.73;2.25;;;11.70;99.90;;;;;;5134785;27;20492;-73